Airfield :
LOGIN :

Register | Disclaimer

   EN    FR    IT 

 










Legend :    VFR   Marginal VFR   IFR   Intensive IFR   Very Intensive IFR
Visi :
Ceiling :
>= 8 km
>= 3000ft
5 to 8 km
1000 to 3000 ft
1500m to 5 km
500 to 1000 ft
800 to 1500m
200 to 500 ft
< 800m
< 200 ft
Symbols :   Thunderstorms  Fog  Heavy snow  Heavy precipitations  Wind > 20 kt
SIGMETs :     Misc.  Thunderstorms  Icing  Turbulence  Mountain Waves  Volcanic Ashes







- Airport Elevation : 616 ft
- IATA code : PUF
- Download approach charts


LFBP - Pau

CURRENT METAR :
  • 220530Z AUTO 24007KT 9999 SCT012 SCT025 BKN032 12/11 Q1027 NOSIG

EXPIRED METARs :
  • 220500Z AUTO 25009KT 9999 DZ SCT008 BKN015 OVC022 12/11 Q1027 TEMPO 4000 -RA OVC005
  • 220430Z AUTO 24005KT 7000 -DZ SCT007 BKN013 BKN018 12/11 Q1027 TEMPO 4000 -RA BECMG BKN020
  • 220400Z AUTO 24008KT 6000 -RADZ BKN009 BKN013 OVC019 12/11 Q1027 TEMPO 4000 -RA
  • 220330Z AUTO 23008KT 9999 -DZ BKN010 OVC015 12/11 Q1027 TEMPO 4000 -RA
  • 220300Z AUTO 24007KT 9999 -DZ SCT010 BKN015 OVC030 12/11 Q1027 TEMPO 4000 -RA OVC005

TAF TAF LFBP
Valid from the 22 at 06:00 until the 23 at 06:00 UTC


220500Z 2206/2306 24005KT 8000 SCT008 BKN015
TEMPO 2206/2212 4000 BR BKN008
TEMPO 2222/2306 3000 BR BKN005
PROB30
TEMPO 2302/2306 0500 FG VV///
No reported NOTAMs for that airfield.
1 SIGMET reported for the Bordeaux FIR (LFBB) :
 
Severe turbulence
LFBB SIGMET 1 VALID 220400/220700 LFPW
LFBB BORDEAUX FIR/UIR SEV TURB FCST WI N4545 E00300 - N4215 E00230 - N4230 E00130 - N4545 E00215 - N4545 E00300 SFC/FL080 STNR NC=



MET'MAP, your aeronautical weather chart ! - Copyright ORBIFLY December 2007 - Disclaimer

ORBIFLY MET'MAP TEAM :

Programming & Development : Alexandra Zaïnal
Concept & Development : Baudouin d'Aumeries
Co-Development & Prog : Marc-Olivier Méhu
Technical & hardware support : Manuel Goepfert

Contact : metmap@orbifly.com




SOURCES & CREDITS :

   NOAA